sensor_id;sensor_type;location;lat;lon;timestamp;P1;durP1;ratioP1;P2;durP2;ratioP2
57893;SDS011;43710;47.460;19.034;2022-09-01T04:07:56;3.65;;;2.42;;
57893;SDS011;43710;47.460;19.034;2022-09-01T04:11:08;5.32;;;2.08;;
57893;SDS011;43710;47.460;19.034;2022-09-01T04:14:14;3.72;;;2.20;;
57893;SDS011;43710;47.460;19.034;2022-09-01T04:17:17;3.97;;;2.35;;
57893;SDS011;43710;47.460;19.034;2022-09-01T04:20:40;5.53;;;2.50;;
57893;SDS011;43710;47.460;19.034;2022-09-01T04:23:49;4.50;;;1.98;;
57893;SDS011;43710;47.460;19.034;2022-09-01T04:26:52;4.80;;;2.47;;
57893;SDS011;43710;47.460;19.034;2022-09-01T04:29:55;3.85;;;2.25;;
57893;SDS011;43710;47.460;19.034;2022-09-01T04:32:59;4.03;;;2.03;;
57893;SDS011;43710;47.460;19.034;2022-09-01T04:36:06;5.93;;;2.30;;
57893;SDS011;43710;47.460;19.034;2022-09-01T04:39:16;5.47;;;2.30;;
57893;SDS011;43710;47.460;19.034;2022-09-01T04:42:19;5.10;;;1.92;;
57893;SDS011;43710;47.460;19.034;2022-09-01T04:45:24;4.68;;;2.00;;
57893;SDS011;43710;47.460;19.034;2022-09-01T04:48:29;4.25;;;2.00;;
57893;SDS011;43710;47.460;19.034;2022-09-01T04:51:32;4.57;;;2.33;;
57893;SDS011;43710;47.460;19.034;2022-09-01T04:54:36;5.55;;;2.72;;
57893;SDS011;43710;47.460;19.034;2022-09-01T04:57:39;3.83;;;2.17;;
57893;SDS011;43710;47.460;19.034;2022-09-01T05:00:44;4.12;;;2.30;;
57893;SDS011;43710;47.460;19.034;2022-09-01T05:03:50;4.72;;;2.50;;
57893;SDS011;43710;47.460;19.034;2022-09-01T05:07:06;5.53;;;2.47;;
57893;SDS011;43710;47.460;19.034;2022-09-01T05:10:09;5.35;;;2.35;;
57893;SDS011;43710;47.460;19.034;2022-09-01T05:13:13;4.85;;;2.45;;
57893;SDS011;43710;47.460;19.034;2022-09-01T05:16:19;5.03;;;1.92;;
57893;SDS011;43710;47.460;19.034;2022-09-01T05:19:26;5.47;;;2.70;;
57893;SDS011;43710;47.460;19.034;2022-09-01T05:22:31;4.30;;;2.33;;
57893;SDS011;43710;47.460;19.034;2022-09-01T05:25:41;5.87;;;2.58;;
57893;SDS011;43710;47.460;19.034;2022-09-01T05:28:46;5.53;;;2.53;;
57893;SDS011;43710;47.460;19.034;2022-09-01T05:31:49;4.50;;;2.62;;
57893;SDS011;43710;47.460;19.034;2022-09-01T05:34:55;4.90;;;2.47;;
57893;SDS011;43710;47.460;19.034;2022-09-01T05:37:57;6.68;;;2.62;;
57893;SDS011;43710;47.460;19.034;2022-09-01T05:41:00;5.00;;;2.28;;
57893;SDS011;43710;47.460;19.034;2022-09-01T05:44:05;7.82;;;2.20;;
57893;SDS011;43710;47.460;19.034;2022-09-01T05:47:09;4.40;;;2.35;;
57893;SDS011;43710;47.460;19.034;2022-09-01T05:50:22;4.82;;;2.47;;
57893;SDS011;43710;47.460;19.034;2022-09-01T05:53:25;8.85;;;2.62;;
57893;SDS011;43710;47.460;19.034;2022-09-01T05:56:30;4.70;;;2.40;;
57893;SDS011;43710;47.460;19.034;2022-09-01T05:59:33;6.28;;;2.40;;
57893;SDS011;43710;47.460;19.034;2022-09-01T06:02:36;6.53;;;2.80;;
57893;SDS011;43710;47.460;19.034;2022-09-01T06:05:41;6.32;;;2.90;;
57893;SDS011;43710;47.460;19.034;2022-09-01T06:08:43;5.05;;;2.30;;
57893;SDS011;43710;47.460;19.034;2022-09-01T06:11:50;4.55;;;2.10;;
57893;SDS011;43710;47.460;19.034;2022-09-01T06:14:53;3.85;;;2.30;;
57893;SDS011;43710;47.460;19.034;2022-09-01T06:17:56;4.32;;;2.40;;
57893;SDS011;43710;47.460;19.034;2022-09-01T06:21:04;5.65;;;2.17;;
57893;SDS011;43710;47.460;19.034;2022-09-01T06:24:09;3.12;;;2.05;;
57893;SDS011;43710;47.460;19.034;2022-09-01T06:27:11;3.95;;;2.20;;
57893;SDS011;43710;47.460;19.034;2022-09-01T06:30:14;5.25;;;2.87;;
57893;SDS011;43710;47.460;19.034;2022-09-01T06:33:27;5.18;;;2.30;;
57893;SDS011;43710;47.460;19.034;2022-09-01T06:36:30;3.83;;;2.00;;
57893;SDS011;43710;47.460;19.034;2022-09-01T06:39:37;4.87;;;2.35;;
57893;SDS011;43710;47.460;19.034;2022-09-01T06:42:40;5.82;;;2.33;;
57893;SDS011;43710;47.460;19.034;2022-09-01T06:45:44;4.93;;;2.42;;
57893;SDS011;43710;47.460;19.034;2022-09-01T06:48:56;4.97;;;2.28;;
57893;SDS011;43710;47.460;19.034;2022-09-01T06:52:00;4.43;;;2.50;;
57893;SDS011;43710;47.460;19.034;2022-09-01T06:55:05;5.80;;;2.40;;
57893;SDS011;43710;47.460;19.034;2022-09-01T06:58:10;4.87;;;2.72;;
57893;SDS011;43710;47.460;19.034;2022-09-01T07:01:23;4.97;;;2.58;;
57893;SDS011;43710;47.460;19.034;2022-09-01T07:04:29;5.53;;;2.25;;
57893;SDS011;43710;47.460;19.034;2022-09-01T07:07:34;4.60;;;2.30;;
57893;SDS011;43710;47.460;19.034;2022-09-01T07:11:05;4.12;;;2.30;;
57893;SDS011;43710;47.460;19.034;2022-09-01T07:14:29;3.83;;;2.50;;
57893;SDS011;43710;47.460;19.034;2022-09-01T07:17:31;3.78;;;2.47;;
57893;SDS011;43710;47.460;19.034;2022-09-01T07:20:34;5.00;;;2.92;;
57893;SDS011;43710;47.460;19.034;2022-09-01T07:24:00;3.97;;;2.30;;
57893;SDS011;43710;47.460;19.034;2022-09-01T07:27:12;5.62;;;2.28;;
57893;SDS011;43710;47.460;19.034;2022-09-01T07:30:20;2.70;;;2.20;;
57893;SDS011;43710;47.460;19.034;2022-09-01T07:33:44;7.03;;;2.50;;
57893;SDS011;43710;47.460;19.034;2022-09-01T07:36:55;5.60;;;2.28;;
57893;SDS011;43710;47.460;19.034;2022-09-01T07:40:18;4.93;;;2.17;;
57893;SDS011;43710;47.460;19.034;2022-09-01T07:43:47;4.60;;;2.28;;
57893;SDS011;43710;47.460;19.034;2022-09-01T07:47:00;4.53;;;2.42;;
57893;SDS011;43710;47.460;19.034;2022-09-01T07:50:22;2.65;;;2.20;;
57893;SDS011;43710;47.460;19.034;2022-09-01T07:53:49;4.68;;;2.15;;
57893;SDS011;43710;47.460;19.034;2022-09-01T07:56:52;3.47;;;2.20;;
57893;SDS011;43710;47.460;19.034;2022-09-01T07:59:57;5.28;;;2.22;;
57893;SDS011;43710;47.460;19.034;2022-09-01T08:03:02;6.30;;;2.67;;
57893;SDS011;43710;47.460;19.034;2022-09-01T08:06:09;2.78;;;1.95;;
57893;SDS011;43710;47.460;19.034;2022-09-01T08:09:13;6.97;;;2.65;;
57893;SDS011;43710;47.460;19.034;2022-09-01T08:12:36;5.55;;;2.40;;
57893;SDS011;43710;47.460;19.034;2022-09-01T08:15:39;4.12;;;2.45;;
57893;SDS011;43710;47.460;19.034;2022-09-01T08:19:02;5.37;;;2.10;;
57893;SDS011;43710;47.460;19.034;2022-09-01T08:22:04;6.95;;;2.30;;
57893;SDS011;43710;47.460;19.034;2022-09-01T08:25:07;3.55;;;1.90;;
57893;SDS011;43710;47.460;19.034;2022-09-01T08:28:11;4.50;;;2.10;;
57893;SDS011;43710;47.460;19.034;2022-09-01T08:31:17;3.33;;;2.10;;
57893;SDS011;43710;47.460;19.034;2022-09-01T08:34:21;4.85;;;1.77;;
57893;SDS011;43710;47.460;19.034;2022-09-01T08:37:26;2.85;;;1.70;;
57893;SDS011;43710;47.460;19.034;2022-09-01T08:40:28;4.07;;;1.75;;
57893;SDS011;43710;47.460;19.034;2022-09-01T08:43:42;4.68;;;1.90;;
57893;SDS011;43710;47.460;19.034;2022-09-01T08:46:56;4.20;;;2.47;;
57893;SDS011;43710;47.460;19.034;2022-09-01T08:50:15;2.45;;;1.60;;
57893;SDS011;43710;47.460;19.034;2022-09-01T08:53:26;5.22;;;1.90;;
57893;SDS011;43710;47.460;19.034;2022-09-01T08:56:34;4.62;;;1.83;;
57893;SDS011;43710;47.460;19.034;2022-09-01T08:59:38;3.78;;;1.90;;
57893;SDS011;43710;47.460;19.034;2022-09-01T09:06:11;4.68;;;1.83;;
57893;SDS011;43710;47.460;19.034;2022-09-01T09:09:18;4.12;;;1.87;;
57893;SDS011;43710;47.460;19.034;2022-09-01T09:16:11;8.13;;;2.10;;
57893;SDS011;43710;47.460;19.034;2022-09-01T09:22:35;5.00;;;1.92;;
57893;SDS011;43710;47.460;19.034;2022-09-01T09:25:38;6.25;;;2.15;;
57893;SDS011;43710;47.460;19.034;2022-09-01T09:28:40;6.57;;;1.85;;
57893;SDS011;43710;47.460;19.034;2022-09-01T09:31:43;3.55;;;2.10;;
57893;SDS011;43710;47.460;19.034;2022-09-01T09:34:51;6.07;;;2.00;;
57893;SDS011;43710;47.460;19.034;2022-09-01T09:37:53;4.12;;;1.73;;
57893;SDS011;43710;47.460;19.034;2022-09-01T09:40:59;4.32;;;1.70;;
57893;SDS011;43710;47.460;19.034;2022-09-01T09:44:24;2.67;;;1.60;;
57893;SDS011;43710;47.460;19.034;2022-09-01T09:50:45;4.57;;;2.00;;
57893;SDS011;43710;47.460;19.034;2022-09-01T09:53:47;7.53;;;2.20;;
57893;SDS011;43710;47.460;19.034;2022-09-01T10:00:23;9.15;;;2.53;;
57893;SDS011;43710;47.460;19.034;2022-09-01T10:03:37;7.57;;;2.20;;
57893;SDS011;43710;47.460;19.034;2022-09-01T10:06:43;5.47;;;1.73;;
57893;SDS011;43710;47.460;19.034;2022-09-01T10:09:48;5.03;;;1.90;;
57893;SDS011;43710;47.460;19.034;2022-09-01T10:12:52;2.62;;;1.90;;
57893;SDS011;43710;47.460;19.034;2022-09-01T10:15:56;3.83;;;1.95;;
57893;SDS011;43710;47.460;19.034;2022-09-01T10:19:00;3.10;;;2.00;;
57893;SDS011;43710;47.460;19.034;2022-09-01T10:22:03;3.53;;;2.08;;
57893;SDS011;43710;47.460;19.034;2022-09-01T10:25:07;14.75;;;2.15;;
57893;SDS011;43710;47.460;19.034;2022-09-01T10:28:19;2.75;;;1.67;;
57893;SDS011;43710;47.460;19.034;2022-09-01T10:31:25;4.87;;;1.90;;
57893;SDS011;43710;47.460;19.034;2022-09-01T10:34:34;6.65;;;1.62;;
57893;SDS011;43710;47.460;19.034;2022-09-01T10:37:38;3.00;;;1.80;;
57893;SDS011;43710;47.460;19.034;2022-09-01T10:40:48;2.45;;;1.60;;
57893;SDS011;43710;47.460;19.034;2022-09-01T10:44:09;1.87;;;1.50;;
57893;SDS011;43710;47.460;19.034;2022-09-01T10:47:24;3.70;;;1.73;;
57893;SDS011;43710;47.460;19.034;2022-09-01T10:50:31;2.55;;;1.52;;
57893;SDS011;43710;47.460;19.034;2022-09-01T10:53:40;5.28;;;2.75;;
57893;SDS011;43710;47.460;19.034;2022-09-01T10:56:48;5.45;;;1.70;;
57893;SDS011;43710;47.460;19.034;2022-09-01T10:59:54;2.60;;;1.30;;
57893;SDS011;43710;47.460;19.034;2022-09-01T11:06:56;3.80;;;1.50;;
57893;SDS011;43710;47.460;19.034;2022-09-01T11:10:20;2.78;;;1.45;;
57893;SDS011;43710;47.460;19.034;2022-09-01T11:13:49;4.62;;;1.33;;
57893;SDS011;43710;47.460;19.034;2022-09-01T11:20:43;4.03;;;1.27;;
57893;SDS011;43710;47.460;19.034;2022-09-01T11:23:46;8.80;;;1.70;;
57893;SDS011;43710;47.460;19.034;2022-09-01T11:26:49;3.87;;;1.30;;
57893;SDS011;43710;47.460;19.034;2022-09-01T11:29:55;6.10;;;1.50;;
57893;SDS011;43710;47.460;19.034;2022-09-01T11:39:54;5.43;;;1.48;;
57893;SDS011;43710;47.460;19.034;2022-09-01T11:43:00;7.15;;;1.50;;
57893;SDS011;43710;47.460;19.034;2022-09-01T11:46:16;1.30;;;1.00;;
57893;SDS011;43710;47.460;19.034;2022-09-01T11:49:38;3.22;;;1.50;;
57893;SDS011;43710;47.460;19.034;2022-09-01T11:53:06;1.83;;;1.37;;
57893;SDS011;43710;47.460;19.034;2022-09-01T11:56:14;2.85;;;1.30;;
57893;SDS011;43710;47.460;19.034;2022-09-01T12:02:40;3.45;;;1.37;;
57893;SDS011;43710;47.460;19.034;2022-09-01T12:05:45;3.20;;;1.30;;
57893;SDS011;43710;47.460;19.034;2022-09-01T12:08:53;2.78;;;1.00;;
57893;SDS011;43710;47.460;19.034;2022-09-01T12:12:01;3.37;;;1.40;;
57893;SDS011;43710;47.460;19.034;2022-09-01T12:18:27;4.05;;;1.65;;
57893;SDS011;43710;47.460;19.034;2022-09-01T12:21:32;3.00;;;1.27;;
57893;SDS011;43710;47.460;19.034;2022-09-01T12:24:37;4.22;;;1.45;;
57893;SDS011;43710;47.460;19.034;2022-09-01T12:27:39;3.53;;;1.30;;
57893;SDS011;43710;47.460;19.034;2022-09-01T12:30:42;2.03;;;1.25;;
57893;SDS011;43710;47.460;19.034;2022-09-01T12:33:45;5.78;;;1.40;;
57893;SDS011;43710;47.460;19.034;2022-09-01T12:37:05;5.15;;;1.50;;
57893;SDS011;43710;47.460;19.034;2022-09-01T12:40:35;1.75;;;1.30;;
57893;SDS011;43710;47.460;19.034;2022-09-01T12:43:39;2.17;;;1.27;;
57893;SDS011;43710;47.460;19.034;2022-09-01T12:46:43;1.65;;;1.30;;
57893;SDS011;43710;47.460;19.034;2022-09-01T12:49:47;2.97;;;1.40;;
57893;SDS011;43710;47.460;19.034;2022-09-01T12:52:54;2.78;;;1.62;;
57893;SDS011;43710;47.460;19.034;2022-09-01T12:56:15;2.78;;;1.30;;
57893;SDS011;43710;47.460;19.034;2022-09-01T12:59:25;4.03;;;1.20;;
57893;SDS011;43710;47.460;19.034;2022-09-01T13:02:42;4.43;;;1.40;;
57893;SDS011;43710;47.460;19.034;2022-09-01T13:05:50;3.15;;;1.48;;
57893;SDS011;43710;47.460;19.034;2022-09-01T13:08:54;3.35;;;1.20;;
57893;SDS011;43710;47.460;19.034;2022-09-01T13:15:20;29.90;;;2.28;;
57893;SDS011;43710;47.460;19.034;2022-09-01T13:18:23;5.85;;;1.27;;
57893;SDS011;43710;47.460;19.034;2022-09-01T13:21:26;4.20;;;1.37;;
57893;SDS011;43710;47.460;19.034;2022-09-01T13:24:29;6.62;;;1.50;;
57893;SDS011;43710;47.460;19.034;2022-09-01T13:27:33;3.58;;;1.33;;
57893;SDS011;43710;47.460;19.034;2022-09-01T13:30:35;5.93;;;1.52;;
57893;SDS011;43710;47.460;19.034;2022-09-01T13:33:37;2.25;;;1.30;;
57893;SDS011;43710;47.460;19.034;2022-09-01T13:37:00;3.12;;;1.40;;
57893;SDS011;43710;47.460;19.034;2022-09-01T13:40:03;2.55;;;1.00;;
57893;SDS011;43710;47.460;19.034;2022-09-01T13:43:17;4.15;;;1.20;;
57893;SDS011;43710;47.460;19.034;2022-09-01T13:46:22;5.62;;;1.40;;
57893;SDS011;43710;47.460;19.034;2022-09-01T13:49:24;9.90;;;1.87;;
57893;SDS011;43710;47.460;19.034;2022-09-01T13:52:50;3.65;;;1.20;;
57893;SDS011;43710;47.460;19.034;2022-09-01T13:55:56;3.28;;;1.20;;
57893;SDS011;43710;47.460;19.034;2022-09-01T13:59:03;5.30;;;1.20;;
57893;SDS011;43710;47.460;19.034;2022-09-01T14:02:05;3.10;;;1.10;;
57893;SDS011;43710;47.460;19.034;2022-09-01T14:05:08;3.17;;;1.23;;
57893;SDS011;43710;47.460;19.034;2022-09-01T14:08:11;3.92;;;1.30;;
57893;SDS011;43710;47.460;19.034;2022-09-01T14:11:15;6.25;;;1.40;;
57893;SDS011;43710;47.460;19.034;2022-09-01T14:14:18;4.12;;;1.62;;
57893;SDS011;43710;47.460;19.034;2022-09-01T14:17:20;7.47;;;1.35;;
57893;SDS011;43710;47.460;19.034;2022-09-01T14:20:24;5.78;;;1.15;;
57893;SDS011;43710;47.460;19.034;2022-09-01T14:23:28;6.32;;;1.62;;
57893;SDS011;43710;47.460;19.034;2022-09-01T14:26:30;5.22;;;1.00;;
57893;SDS011;43710;47.460;19.034;2022-09-01T14:29:33;3.97;;;1.00;;
57893;SDS011;43710;47.460;19.034;2022-09-01T14:32:35;3.05;;;1.20;;
57893;SDS011;43710;47.460;19.034;2022-09-01T14:35:38;2.45;;;1.08;;
57893;SDS011;43710;47.460;19.034;2022-09-01T14:38:42;2.80;;;1.10;;
57893;SDS011;43710;47.460;19.034;2022-09-01T14:41:44;3.87;;;1.37;;
57893;SDS011;43710;47.460;19.034;2022-09-01T14:44:47;5.35;;;0.93;;
57893;SDS011;43710;47.460;19.034;2022-09-01T14:47:50;3.17;;;1.20;;
57893;SDS011;43710;47.460;19.034;2022-09-01T14:50:54;4.47;;;1.33;;
57893;SDS011;43710;47.460;19.034;2022-09-01T14:53:57;1.92;;;1.10;;
57893;SDS011;43710;47.460;19.034;2022-09-01T14:56:59;6.10;;;1.33;;
57893;SDS011;43710;47.460;19.034;2022-09-01T15:00:22;2.90;;;1.00;;
